Time;durP1;ratioP1;P1;durP2;ratioP2;P2;SDS_P1;SDS_P2;PMS_P1;PMS_P2;Temp;Humidity;BMP_temperature;BMP_pressure;BME280_temperature;BME280_humidity;BME280_pressure;Samples;Min_cycle;Max_cycle;Signal;HPM_P1;HPM_P2
2022/08/16 00:01:36;;;;;;;18.58;5.90;;;;;;;;;;5039695;28;20076;-64
2022/08/16 00:04:02;;;;;;;15.73;5.65;;;;;;;;;;5041352;28;20410;-64
2022/08/16 00:06:28;;;;;;;15.30;5.20;;;;;;;;;;5037204;28;20698;-64
2022/08/16 00:08:54;;;;;;;19.05;5.88;;;;;;;;;;5039551;28;20527;-64
2022/08/16 00:11:21;;;;;;;14.98;5.43;;;;;;;;;;5037064;28;20431;-64
2022/08/16 00:13:49;;;;;;;17.63;5.70;;;;;;;;;;5040604;28;20063;-63
2022/08/16 00:16:15;;;;;;;13.77;5.18;;;;;;;;;;5042359;28;20358;-64
2022/08/16 00:18:41;;;;;;;16.25;5.97;;;;;;;;;;5038248;28;20085;-64
2022/08/16 00:21:07;;;;;;;13.75;5.30;;;;;;;;;;5046813;28;20046;-67
2022/08/16 00:23:33;;;;;;;18.10;5.63;;;;;;;;;;5039734;28;20025;-64
2022/08/16 00:25:59;;;;;;;18.25;5.43;;;;;;;;;;5046662;28;20028;-64
2022/08/16 00:28:26;;;;;;;15.95;5.07;;;;;;;;;;5040382;28;20513;-64
2022/08/16 00:30:52;;;;;;;14.52;4.88;;;;;;;;;;5037222;28;20858;-64
2022/08/16 00:33:19;;;;;;;16.02;5.30;;;;;;;;;;5043068;28;20024;-64
2022/08/16 00:35:45;;;;;;;14.05;5.40;;;;;;;;;;5044573;28;20032;-64
2022/08/16 00:38:11;;;;;;;18.15;5.55;;;;;;;;;;5043278;28;20024;-64
2022/08/16 00:40:42;;;;;;;16.55;5.28;;;;;;;;;;5039172;28;20471;-64
2022/08/16 00:43:11;;;;;;;16.23;5.13;;;;;;;;;;5038664;28;20036;-64
2022/08/16 00:45:57;;;;;;;18.42;5.30;;;;;;;;;;5038258;28;20032;-64
2022/08/16 00:48:23;;;;;;;14.50;5.38;;;;;;;;;;5039824;28;20068;-64
2022/08/16 00:50:50;;;;;;;12.48;5.18;;;;;;;;;;5046219;28;20047;-64
2022/08/16 00:53:16;;;;;;;18.80;5.80;;;;;;;;;;5041565;28;20787;-64
2022/08/16 00:55:44;;;;;;;16.30;5.00;;;;;;;;;;5035460;28;20386;-64
2022/08/16 00:58:10;;;;;;;17.42;5.88;;;;;;;;;;5042566;28;20035;-64
2022/08/16 01:00:37;;;;;;;16.35;5.72;;;;;;;;;;5038132;28;20040;-64
2022/08/16 01:03:07;;;;;;;15.75;5.68;;;;;;;;;;5044043;28;20032;-64
2022/08/16 01:05:33;;;;;;;19.15;6.05;;;;;;;;;;5038629;28;20042;-64
2022/08/16 01:08:00;;;;;;;17.10;5.68;;;;;;;;;;5044784;28;20580;-64
2022/08/16 01:10:28;;;;;;;13.65;5.30;;;;;;;;;;5038817;28;20401;-64
2022/08/16 01:12:54;;;;;;;13.98;5.60;;;;;;;;;;5035600;28;20416;-64
2022/08/16 01:15:20;;;;;;;16.70;6.20;;;;;;;;;;5036503;28;20040;-64
2022/08/16 01:17:47;;;;;;;17.35;5.60;;;;;;;;;;5043258;28;20802;-64
2022/08/16 01:20:16;;;;;;;14.75;5.10;;;;;;;;;;5055695;28;20032;-64
2022/08/16 01:22:51;;;;;;;16.15;5.28;;;;;;;;;;5036812;28;20570;-64
2022/08/16 01:25:23;;;;;;;17.95;5.78;;;;;;;;;;5043288;28;20075;-64
2022/08/16 01:27:51;;;;;;;18.63;6.22;;;;;;;;;;5042817;28;20318;-64
2022/08/16 01:30:19;;;;;;;17.10;5.82;;;;;;;;;;5038663;28;20537;-64
2022/08/16 01:32:45;;;;;;;17.45;5.50;;;;;;;;;;5041113;28;20931;-64
2022/08/16 01:35:17;;;;;;;17.40;5.88;;;;;;;;;;5041287;28;20035;-64
2022/08/16 01:37:50;;;;;;;12.57;5.10;;;;;;;;;;5035847;28;20068;-64
2022/08/16 01:40:18;;;;;;;19.33;5.85;;;;;;;;;;5053291;28;20040;-64
2022/08/16 01:42:45;;;;;;;15.18;5.50;;;;;;;;;;5040719;28;20039;-64
2022/08/16 01:45:11;;;;;;;16.05;5.78;;;;;;;;;;5040831;28;20059;-63
2022/08/16 01:47:38;;;;;;;18.67;5.22;;;;;;;;;;5033487;28;20058;-64
2022/08/16 01:50:05;;;;;;;14.75;5.68;;;;;;;;;;5034789;28;20043;-63
2022/08/16 01:52:32;;;;;;;18.13;5.82;;;;;;;;;;5036812;28;20056;-63
2022/08/16 01:54:58;;;;;;;14.98;5.25;;;;;;;;;;5038413;28;20032;-63
2022/08/16 01:57:25;;;;;;;16.42;5.50;;;;;;;;;;5040674;28;20489;-64
2022/08/16 01:59:51;;;;;;;14.50;5.13;;;;;;;;;;5045197;28;20170;-64
2022/08/16 02:02:17;;;;;;;14.35;5.45;;;;;;;;;;5044828;28;20036;-63
2022/08/16 02:04:43;;;;;;;15.15;5.10;;;;;;;;;;5041780;28;20037;-63
2022/08/16 02:07:11;;;;;;;14.07;5.25;;;;;;;;;;5050639;28;20027;-63
2022/08/16 02:09:38;;;;;;;21.15;5.72;;;;;;;;;;5040106;28;20040;-63
2022/08/16 02:12:06;;;;;;;13.57;5.70;;;;;;;;;;5045288;28;20044;-63
2022/08/16 02:14:33;;;;;;;17.73;6.00;;;;;;;;;;5037633;28;20046;-63
2022/08/16 02:17:03;;;;;;;17.50;5.47;;;;;;;;;;5047716;28;20038;-63
2022/08/16 02:19:30;;;;;;;17.33;5.20;;;;;;;;;;5044629;28;20488;-64
2022/08/16 02:21:56;;;;;;;15.20;5.60;;;;;;;;;;5043812;28;20567;-64
2022/08/16 02:24:23;;;;;;;14.45;5.38;;;;;;;;;;5041385;28;20125;-64
2022/08/16 02:26:49;;;;;;;14.88;5.15;;;;;;;;;;5047649;28;20452;-64
2022/08/16 02:29:17;;;;;;;14.27;4.65;;;;;;;;;;5045445;28;20036;-64
2022/08/16 02:31:44;;;;;;;14.10;5.45;;;;;;;;;;5043003;28;20086;-64
2022/08/16 02:34:11;;;;;;;16.75;5.22;;;;;;;;;;5047955;28;20443;-64
2022/08/16 02:36:37;;;;;;;12.93;5.18;;;;;;;;;;5042768;28;20071;-64
2022/08/16 02:39:04;;;;;;;14.93;5.38;;;;;;;;;;5043904;28;20462;-64
2022/08/16 02:41:30;;;;;;;16.38;6.00;;;;;;;;;;5040330;28;20035;-64
2022/08/16 02:43:57;;;;;;;16.23;6.20;;;;;;;;;;5046293;28;20036;-64
2022/08/16 02:46:23;;;;;;;16.73;5.50;;;;;;;;;;5041326;28;20012;-64
2022/08/16 02:48:49;;;;;;;17.13;5.60;;;;;;;;;;5046866;28;21393;-64
2022/08/16 02:51:15;;;;;;;19.67;5.60;;;;;;;;;;5041225;28;20083;-64
2022/08/16 02:53:42;;;;;;;16.02;5.45;;;;;;;;;;5036014;28;20063;-64
2022/08/16 02:56:10;;;;;;;13.18;5.40;;;;;;;;;;5041970;28;20028;-64
2022/08/16 02:58:36;;;;;;;14.07;5.78;;;;;;;;;;5038027;28;20036;-64
2022/08/16 03:01:02;;;;;;;14.38;5.55;;;;;;;;;;5042509;28;20020;-64
2022/08/16 03:03:28;;;;;;;17.77;6.05;;;;;;;;;;5038049;28;20419;-64
2022/08/16 03:05:55;;;;;;;19.30;5.57;;;;;;;;;;5037858;28;20032;-64
2022/08/16 03:08:21;;;;;;;15.95;5.60;;;;;;;;;;5036260;28;20056;-64
2022/08/16 03:10:48;;;;;;;18.85;6.05;;;;;;;;;;5044460;28;20032;-64
2022/08/16 03:13:16;;;;;;;19.65;5.85;;;;;;;;;;5041469;28;20873;-64
2022/08/16 03:15:43;;;;;;;15.85;6.05;;;;;;;;;;5039606;28;20045;-64
2022/08/16 03:18:09;;;;;;;17.45;5.60;;;;;;;;;;5040336;28;20643;-64
2022/08/16 03:20:35;;;;;;;15.65;5.43;;;;;;;;;;5039737;28;20047;-64
2022/08/16 03:23:02;;;;;;;15.63;5.10;;;;;;;;;;5057828;28;20031;-63
2022/08/16 03:25:29;;;;;;;16.67;5.30;;;;;;;;;;5037235;28;20021;-64
2022/08/16 03:27:55;;;;;;;16.88;5.60;;;;;;;;;;5041500;28;20286;-64
2022/08/16 03:30:23;;;;;;;15.55;5.55;;;;;;;;;;5038626;28;20047;-64
2022/08/16 03:32:49;;;;;;;14.60;5.88;;;;;;;;;;5045210;28;20064;-64
2022/08/16 03:35:16;;;;;;;17.80;5.82;;;;;;;;;;5042057;28;20526;-64
2022/08/16 03:37:44;;;;;;;16.70;6.10;;;;;;;;;;5040358;28;20476;-64
2022/08/16 03:40:11;;;;;;;18.00;6.15;;;;;;;;;;5040020;28;20432;-64
2022/08/16 03:42:37;;;;;;;18.25;5.90;;;;;;;;;;5042226;28;20452;-65
2022/08/16 03:45:04;;;;;;;15.68;5.78;;;;;;;;;;5043022;28;20139;-64
2022/08/16 03:47:30;;;;;;;13.82;5.28;;;;;;;;;;5038701;28;20024;-64
2022/08/16 03:49:57;;;;;;;17.55;5.50;;;;;;;;;;5044933;28;20048;-65
2022/08/16 03:52:24;;;;;;;17.98;6.78;;;;;;;;;;4988003;28;1408439;-64
2022/08/16 03:54:50;;;;;;;17.98;6.30;;;;;;;;;;5040487;28;20154;-64
2022/08/16 03:57:16;;;;;;;21.52;6.72;;;;;;;;;;5042266;28;20029;-64
2022/08/16 03:59:42;;;;;;;16.10;6.10;;;;;;;;;;5041512;28;20032;-64
2022/08/16 04:02:11;;;;;;;18.88;6.82;;;;;;;;;;5047268;28;20058;-64
2022/08/16 04:04:37;;;;;;;22.65;6.90;;;;;;;;;;5036779;28;20748;-64
2022/08/16 04:07:05;;;;;;;21.45;7.30;;;;;;;;;;5046940;28;20105;-64
2022/08/16 04:09:31;;;;;;;16.58;5.80;;;;;;;;;;5037725;28;20037;-64
2022/08/16 04:11:58;;;;;;;15.05;6.20;;;;;;;;;;5044367;28;20481;-64
2022/08/16 04:14:24;;;;;;;16.17;5.63;;;;;;;;;;5041442;28;20040;-64
2022/08/16 04:16:50;;;;;;;14.90;4.88;;;;;;;;;;5047989;28;20036;-64
2022/08/16 04:19:16;;;;;;;14.23;5.05;;;;;;;;;;5039121;28;20097;-64
2022/08/16 04:21:42;;;;;;;16.80;5.50;;;;;;;;;;5038654;28;20033;-65
2022/08/16 04:24:08;;;;;;;16.60;4.75;;;;;;;;;;5040795;28;20457;-64
2022/08/16 04:26:35;;;;;;;20.70;5.53;;;;;;;;;;5040330;28;20640;-65
2022/08/16 04:29:01;;;;;;;16.48;5.00;;;;;;;;;;5040154;28;20113;-64
2022/08/16 04:31:28;;;;;;;16.48;5.30;;;;;;;;;;5039068;28;20020;-63
2022/08/16 04:33:58;;;;;;;17.40;4.80;;;;;;;;;;5040576;28;20966;-63
2022/08/16 04:36:24;;;;;;;13.85;5.15;;;;;;;;;;5036311;28;20355;-63
2022/08/16 04:38:50;;;;;;;15.35;4.85;;;;;;;;;;5042866;28;20029;-63
2022/08/16 04:41:17;;;;;;;14.95;4.97;;;;;;;;;;5042261;28;20031;-63
2022/08/16 04:43:44;;;;;;;17.55;5.68;;;;;;;;;;5035352;28;20060;-63
2022/08/16 04:46:15;;;;;;;14.88;4.88;;;;;;;;;;5040252;28;20020;-63
2022/08/16 04:48:42;;;;;;;15.40;5.38;;;;;;;;;;5036804;28;20028;-63
2022/08/16 04:51:08;;;;;;;14.13;5.35;;;;;;;;;;5038916;28;20147;-63
2022/08/16 04:53:34;;;;;;;15.90;5.65;;;;;;;;;;5042985;28;20514;-63
2022/08/16 04:56:00;;;;;;;13.38;5.45;;;;;;;;;;5041224;28;20122;-64
2022/08/16 04:58:27;;;;;;;14.68;4.82;;;;;;;;;;5038357;28;20488;-64
2022/08/16 05:00:53;;;;;;;17.65;5.50;;;;;;;;;;5039832;28;20090;-64
2022/08/16 05:03:20;;;;;;;17.60;5.43;;;;;;;;;;5041293;28;20549;-63
2022/08/16 05:05:47;;;;;;;18.08;6.13;;;;;;;;;;5040047;28;20067;-67
2022/08/16 05:08:13;;;;;;;22.20;6.57;;;;;;;;;;5044023;28;20474;-63
2022/08/16 05:10:39;;;;;;;17.25;6.35;;;;;;;;;;5039645;28;20029;-64
2022/08/16 05:13:06;;;;;;;35.97;8.32;;;;;;;;;;5042210;28;20044;-64
2022/08/16 05:15:33;;;;;;;28.35;8.30;;;;;;;;;;5039923;28;20036;-64
2022/08/16 05:17:59;;;;;;;17.25;7.35;;;;;;;;;;5038186;28;20473;-64
2022/08/16 05:20:26;;;;;;;19.38;8.20;;;;;;;;;;5038389;28;20053;-64
2022/08/16 05:22:52;;;;;;;20.05;7.95;;;;;;;;;;5038472;28;20569;-65
2022/08/16 05:25:18;;;;;;;16.15;7.60;;;;;;;;;;5042724;28;20026;-64
2022/08/16 05:27:44;;;;;;;22.10;8.13;;;;;;;;;;5038898;28;20035;-64
2022/08/16 05:30:14;;;;;;;14.02;7.88;;;;;;;;;;5040733;28;20496;-62
2022/08/16 05:32:41;;;;;;;19.90;7.13;;;;;;;;;;5035786;28;20032;-63
2022/08/16 05:35:08;;;;;;;15.05;7.32;;;;;;;;;;5039886;28;20036;-64
2022/08/16 05:37:35;;;;;;;19.77;7.57;;;;;;;;;;5034552;28;20045;-63
2022/08/16 05:40:01;;;;;;;21.27;7.60;;;;;;;;;;5036221;28;20093;-65
2022/08/16 05:42:27;;;;;;;18.15;6.93;;;;;;;;;;5040104;28;20558;-64
2022/08/16 05:44:54;;;;;;;17.75;6.90;;;;;;;;;;5040311;28;20029;-64
2022/08/16 05:47:20;;;;;;;17.33;6.88;;;;;;;;;;5041543;28;20134;-65
2022/08/16 05:49:46;;;;;;;19.60;6.20;;;;;;;;;;5038723;28;20032;-63
2022/08/16 05:52:12;;;;;;;16.75;5.57;;;;;;;;;;5043483;28;21180;-63
2022/08/16 05:54:39;;;;;;;14.95;5.57;;;;;;;;;;5038308;28;22911;-64
2022/08/16 05:57:05;;;;;;;17.40;5.43;;;;;;;;;;5039271;28;20403;-64
2022/08/16 05:59:31;;;;;;;15.20;5.60;;;;;;;;;;5039751;28;20035;-64
2022/08/16 06:01:57;;;;;;;17.27;6.18;;;;;;;;;;5037089;28;20043;-64
2022/08/16 06:04:23;;;;;;;21.95;5.63;;;;;;;;;;5036555;28;20151;-63
2022/08/16 06:06:50;;;;;;;19.52;5.93;;;;;;;;;;5043784;28;20569;-63
2022/08/16 06:09:16;;;;;;;14.10;5.43;;;;;;;;;;5045474;28;20084;-64
2022/08/16 06:11:43;;;;;;;14.85;5.45;;;;;;;;;;5039202;28;20462;-63
2022/08/16 06:14:09;;;;;;;17.80;5.47;;;;;;;;;;5037638;28;20045;-64
2022/08/16 06:16:35;;;;;;;14.73;5.18;;;;;;;;;;5038016;28;20044;-64
2022/08/16 06:19:02;;;;;;;17.38;5.55;;;;;;;;;;5044567;28;20032;-63
2022/08/16 06:21:28;;;;;;;16.35;5.35;;;;;;;;;;5057156;28;20616;-63
2022/08/16 06:23:54;;;;;;;17.77;5.75;;;;;;;;;;5045548;28;20097;-64
2022/08/16 06:26:21;;;;;;;16.35;5.75;;;;;;;;;;5044909;28;20032;-64
2022/08/16 06:28:47;;;;;;;21.25;5.45;;;;;;;;;;5041207;28;20036;-64
2022/08/16 06:31:14;;;;;;;14.50;5.05;;;;;;;;;;5044536;28;20028;-65
2022/08/16 06:33:41;;;;;;;18.00;5.85;;;;;;;;;;5042955;28;20067;-63
2022/08/16 06:36:08;;;;;;;15.93;5.60;;;;;;;;;;5044037;28;20640;-63
2022/08/16 06:38:34;;;;;;;18.20;5.78;;;;;;;;;;5040750;28;20035;-63
2022/08/16 06:41:02;;;;;;;21.15;5.95;;;;;;;;;;5040151;28;20028;-63
2022/08/16 06:43:29;;;;;;;18.67;6.45;;;;;;;;;;5038113;28;20036;-64
2022/08/16 06:45:55;;;;;;;15.80;5.38;;;;;;;;;;5044564;28;21676;-64
2022/08/16 06:48:21;;;;;;;18.35;6.05;;;;;;;;;;5042432;28;20027;-64
2022/08/16 06:50:48;;;;;;;18.00;5.55;;;;;;;;;;5048105;28;20037;-63
2022/08/16 06:53:16;;;;;;;20.10;5.72;;;;;;;;;;5045761;28;20032;-63
2022/08/16 06:55:43;;;;;;;18.17;5.07;;;;;;;;;;5043454;28;20051;-63
2022/08/16 06:58:09;;;;;;;17.95;6.13;;;;;;;;;;5047166;28;20089;-63
2022/08/16 07:00:37;;;;;;;17.90;6.00;;;;;;;;;;5040145;28;20456;-63
2022/08/16 07:03:03;;;;;;;21.67;6.53;;;;;;;;;;5047607;28;20024;-64
2022/08/16 07:05:30;;;;;;;22.08;6.68;;;;;;;;;;5046512;28;20213;-65
2022/08/16 07:07:56;;;;;;;17.55;5.88;;;;;;;;;;5047712;28;20754;-66
2022/08/16 07:10:23;;;;;;;21.35;6.60;;;;;;;;;;5043132;28;20518;-65
2022/08/16 07:12:50;;;;;;;20.13;5.72;;;;;;;;;;5043116;28;20430;-65
2022/08/16 07:15:19;;;;;;;15.60;5.60;;;;;;;;;;5045426;28;20042;-65
2022/08/16 07:17:48;;;;;;;17.77;5.30;;;;;;;;;;5042906;28;20063;-63
2022/08/16 07:20:14;;;;;;;14.63;5.10;;;;;;;;;;5044077;28;20028;-64
2022/08/16 07:22:41;;;;;;;17.95;5.70;;;;;;;;;;5043418;28;20413;-65
2022/08/16 07:25:09;;;;;;;16.08;5.15;;;;;;;;;;5045594;28;20356;-65
2022/08/16 07:27:35;;;;;;;17.42;5.50;;;;;;;;;;5056117;28;20205;-65
2022/08/16 07:30:01;;;;;;;18.20;6.15;;;;;;;;;;5047659;28;20028;-65
2022/08/16 07:32:28;;;;;;;22.02;6.47;;;;;;;;;;5041806;28;20050;-65
2022/08/16 07:34:54;;;;;;;16.38;5.35;;;;;;;;;;5046160;28;20036;-66
2022/08/16 07:37:20;;;;;;;17.42;5.55;;;;;;;;;;5039539;28;20056;-65
2022/08/16 07:39:46;;;;;;;15.57;5.28;;;;;;;;;;5044267;28;20037;-64
2022/08/16 07:42:13;;;;;;;18.98;5.25;;;;;;;;;;5048362;28;20119;-66
2022/08/16 07:44:39;;;;;;;20.73;5.30;;;;;;;;;;5040749;28;20483;-64
2022/08/16 07:47:05;;;;;;;18.42;5.47;;;;;;;;;;5043786;28;20174;-64
2022/08/16 07:49:31;;;;;;;20.45;5.75;;;;;;;;;;5045086;28;20020;-64
2022/08/16 07:51:57;;;;;;;20.17;6.10;;;;;;;;;;5051444;28;20090;-64
2022/08/16 07:54:23;;;;;;;17.90;5.30;;;;;;;;;;5038119;28;20713;-64
2022/08/16 07:56:49;;;;;;;19.05;5.43;;;;;;;;;;5042051;28;20462;-64
2022/08/16 07:59:15;;;;;;;20.33;5.10;;;;;;;;;;5049554;28;20554;-66
2022/08/16 08:01:41;;;;;;;19.50;5.35;;;;;;;;;;5043832;28;20810;-62
2022/08/16 08:04:12;;;;;;;18.77;5.55;;;;;;;;;;5046518;28;20036;-64
2022/08/16 08:06:40;;;;;;;17.00;4.82;;;;;;;;;;5043883;28;21056;-65
2022/08/16 08:09:06;;;;;;;17.33;4.88;;;;;;;;;;5047076;28;20028;-65
2022/08/16 08:11:32;;;;;;;15.35;4.28;;;;;;;;;;5043450;28;21164;-63
2022/08/16 08:14:00;;;;;;;19.25;4.70;;;;;;;;;;5047496;28;20040;-64
2022/08/16 08:16:26;;;;;;;18.33;4.72;;;;;;;;;;5041639;28;20040;-64
2022/08/16 08:18:55;;;;;;;18.75;4.90;;;;;;;;;;5048313;28;20021;-64
2022/08/16 08:21:23;;;;;;;16.58;4.47;;;;;;;;;;5043152;28;20123;-63
2022/08/16 08:23:50;;;;;;;16.88;4.85;;;;;;;;;;5049060;28;20032;-63
2022/08/16 08:26:16;;;;;;;19.35;5.07;;;;;;;;;;5046678;28;20045;-63
2022/08/16 08:28:42;;;;;;;16.75;4.70;;;;;;;;;;5041628;28;20141;-65
2022/08/16 08:31:09;;;;;;;17.50;4.95;;;;;;;;;;5043637;28;20596;-64
2022/08/16 08:33:35;;;;;;;19.48;4.75;;;;;;;;;;5043572;28;20433;-64
2022/08/16 08:36:06;;;;;;;15.60;4.68;;;;;;;;;;5040371;28;20841;-64
2022/08/16 08:38:33;;;;;;;14.05;4.53;;;;;;;;;;5039037;28;20054;-64
2022/08/16 08:41:00;;;;;;;14.25;4.30;;;;;;;;;;5049382;28;20040;-64
2022/08/16 08:43:26;;;;;;;16.73;4.43;;;;;;;;;;5039772;28;20190;-66
2022/08/16 08:45:56;;;;;;;14.80;4.40;;;;;;;;;;5042977;28;20473;-64
2022/08/16 08:48:22;;;;;;;17.50;4.40;;;;;;;;;;5041640;28;20095;-64
2022/08/16 08:50:48;;;;;;;16.98;4.25;;;;;;;;;;5043829;28;20043;-65
2022/08/16 08:53:15;;;;;;;14.65;4.03;;;;;;;;;;5045378;28;20048;-65
2022/08/16 08:55:41;;;;;;;15.82;3.90;;;;;;;;;;5037791;28;20036;-64
2022/08/16 08:58:08;;;;;;;14.02;4.00;;;;;;;;;;5041376;28;20054;-65
2022/08/16 09:00:37;;;;;;;14.00;3.90;;;;;;;;;;5043067;28;20039;-65
2022/08/16 09:03:03;;;;;;;14.52;3.67;;;;;;;;;;5047079;28;20032;-65
2022/08/16 09:05:29;;;;;;;15.82;3.85;;;;;;;;;;5043082;28;20077;-65
2022/08/16 09:07:55;;;;;;;14.88;3.88;;;;;;;;;;5046752;28;20494;-65
2022/08/16 09:10:22;;;;;;;18.33;3.78;;;;;;;;;;5038104;28;20433;-65
2022/08/16 09:12:48;;;;;;;11.75;3.50;;;;;;;;;;5039361;28;20055;-65
2022/08/16 09:15:15;;;;;;;19.23;3.75;;;;;;;;;;5045009;28;20041;-66
2022/08/16 09:17:41;;;;;;;13.95;3.55;;;;;;;;;;5042660;28;20023;-64
2022/08/16 09:20:09;;;;;;;15.80;3.72;;;;;;;;;;5039588;28;20127;-64
2022/08/16 09:22:36;;;;;;;15.95;3.72;;;;;;;;;;5045380;28;20465;-64
2022/08/16 09:25:02;;;;;;;12.07;3.35;;;;;;;;;;5041565;28;20450;-66
2022/08/16 09:27:28;;;;;;;12.45;3.60;;;;;;;;;;5040005;28;20909;-64
2022/08/16 09:29:54;;;;;;;14.20;4.00;;;;;;;;;;5043605;28;20462;-64
2022/08/16 09:32:21;;;;;;;12.43;3.08;;;;;;;;;;5039870;28;21733;-65
2022/08/16 09:34:47;;;;;;;14.40;3.80;;;;;;;;;;5037863;28;20036;-64
2022/08/16 09:37:14;;;;;;;15.93;3.72;;;;;;;;;;5038136;28;20029;-64
2022/08/16 09:39:40;;;;;;;13.65;3.58;;;;;;;;;;5036707;28;20028;-65
2022/08/16 09:42:07;;;;;;;14.02;3.60;;;;;;;;;;5048859;28;20035;-65
2022/08/16 09:44:34;;;;;;;14.38;3.28;;;;;;;;;;5041106;28;20066;-65
2022/08/16 09:47:01;;;;;;;13.85;3.55;;;;;;;;;;5042702;28;20280;-65
2022/08/16 09:49:27;;;;;;;15.57;3.33;;;;;;;;;;5040667;28;20481;-64
2022/08/16 09:51:53;;;;;;;13.35;3.53;;;;;;;;;;5043027;28;20068;-65
2022/08/16 09:54:24;;;;;;;9.63;2.67;;;;;;;;;;5041471;28;20489;-65
2022/08/16 09:56:50;;;;;;;14.73;3.08;;;;;;;;;;5039175;28;20020;-64
2022/08/16 09:59:17;;;;;;;14.65;3.22;;;;;;;;;;5046496;28;21135;-66
2022/08/16 10:01:43;;;;;;;11.52;2.88;;;;;;;;;;5039486;28;20056;-64
2022/08/16 10:04:10;;;;;;;15.55;3.42;;;;;;;;;;5045981;28;20521;-65
2022/08/16 10:06:37;;;;;;;14.98;3.25;;;;;;;;;;5044023;28;20294;-65
2022/08/16 10:09:04;;;;;;;13.30;3.40;;;;;;;;;;5044965;28;20039;-65
2022/08/16 10:14:15;;;;;;;13.55;2.95;;;;;;;;;;5039187;28;20039;-64
2022/08/16 10:16:43;;;;;;;12.02;3.20;;;;;;;;;;5032989;28;20486;-64
2022/08/16 10:19:09;;;;;;;10.55;3.10;;;;;;;;;;5043114;28;20102;-64
2022/08/16 10:21:36;;;;;;;11.60;3.40;;;;;;;;;;5042880;28;20482;-64
2022/08/16 10:24:02;;;;;;;10.65;3.20;;;;;;;;;;5052135;28;20431;-65
2022/08/16 10:26:29;;;;;;;11.07;2.97;;;;;;;;;;5045688;28;20033;-65
2022/08/16 10:28:55;;;;;;;13.30;3.08;;;;;;;;;;5046393;28;20059;-65
2022/08/16 10:31:21;;;;;;;10.98;3.08;;;;;;;;;;5041620;28;20032;-63
2022/08/16 10:33:47;;;;;;;11.40;3.17;;;;;;;;;;5047389;28;20032;-64
2022/08/16 10:36:14;;;;;;;12.23;3.35;;;;;;;;;;5038610;28;20547;-66
2022/08/16 10:38:40;;;;;;;12.55;3.35;;;;;;;;;;5043205;28;20503;-64
2022/08/16 10:41:07;;;;;;;11.65;3.20;;;;;;;;;;5046967;28;20090;-65
2022/08/16 10:43:34;;;;;;;12.60;3.40;;;;;;;;;;5044581;28;20482;-66
2022/08/16 10:46:02;;;;;;;12.25;3.53;;;;;;;;;;5048748;28;20036;-65
2022/08/16 10:48:28;;;;;;;14.23;3.60;;;;;;;;;;5044475;28;20792;-63
2022/08/16 10:50:57;;;;;;;12.00;3.25;;;;;;;;;;5046968;28;20501;-62
2022/08/16 10:53:23;;;;;;;12.98;3.75;;;;;;;;;;5037668;28;20037;-62
2022/08/16 10:55:49;;;;;;;10.77;3.20;;;;;;;;;;5046112;28;20529;-62
2022/08/16 10:58:16;;;;;;;13.05;3.25;;;;;;;;;;5041892;28;20110;-62
2022/08/16 11:00:42;;;;;;;11.40;3.25;;;;;;;;;;5041832;28;20035;-62
2022/08/16 11:03:08;;;;;;;11.80;3.25;;;;;;;;;;5046603;28;20695;-65
2022/08/16 11:05:36;;;;;;;13.75;3.20;;;;;;;;;;5038735;28;20017;-63
2022/08/16 11:08:02;;;;;;;11.50;3.17;;;;;;;;;;5044314;28;20544;-62
2022/08/16 11:10:33;;;;;;;11.63;2.85;;;;;;;;;;5053259;28;20024;-62
2022/08/16 11:12:59;;;;;;;11.43;3.22;;;;;;;;;;5051987;28;20036;-67
2022/08/16 11:15:26;;;;;;;13.27;3.55;;;;;;;;;;5036015;28;20048;-62
2022/08/16 11:17:53;;;;;;;12.77;3.13;;;;;;;;;;5037514;28;20673;-63
2022/08/16 11:20:19;;;;;;;11.75;3.58;;;;;;;;;;5039866;28;20471;-62
2022/08/16 11:22:46;;;;;;;10.57;2.75;;;;;;;;;;5039795;28;20298;-61
2022/08/16 11:25:14;;;;;;;11.52;2.78;;;;;;;;;;5041215;28;20024;-62
2022/08/16 11:27:40;;;;;;;12.65;2.90;;;;;;;;;;5036990;28;20960;-61
2022/08/16 11:30:08;;;;;;;12.02;3.17;;;;;;;;;;5042908;28;20024;-64
2022/08/16 11:32:34;;;;;;;14.05;3.15;;;;;;;;;;5053295;28;20067;-64
2022/08/16 11:35:02;;;;;;;16.35;3.28;;;;;;;;;;5041376;28;20032;-62
2022/08/16 11:37:28;;;;;;;12.02;3.10;;;;;;;;;;5039445;28;20031;-62
2022/08/16 11:39:54;;;;;;;12.15;3.20;;;;;;;;;;5042250;28;20032;-64
2022/08/16 11:42:20;;;;;;;16.48;3.70;;;;;;;;;;5040157;28;20163;-62
2022/08/16 11:44:46;;;;;;;10.27;3.03;;;;;;;;;;5043688;28;20024;-63
2022/08/16 11:47:12;;;;;;;15.23;3.20;;;;;;;;;;5042318;28;20029;-62
2022/08/16 11:49:39;;;;;;;13.38;3.20;;;;;;;;;;5038481;28;22090;-61
2022/08/16 11:52:05;;;;;;;18.48;3.83;;;;;;;;;;5039966;28;20136;-62
2022/08/16 11:54:31;;;;;;;12.30;3.17;;;;;;;;;;5037796;28;20417;-61
2022/08/16 11:56:58;;;;;;;14.20;3.70;;;;;;;;;;5040506;28;21206;-63
2022/08/16 11:59:28;;;;;;;14.75;3.30;;;;;;;;;;5037929;28;20357;-63
2022/08/16 12:01:55;;;;;;;12.38;3.33;;;;;;;;;;5042360;28;20105;-62
2022/08/16 12:04:21;;;;;;;13.35;3.13;;;;;;;;;;5037545;28;20031;-62
2022/08/16 12:06:48;;;;;;;14.30;3.75;;;;;;;;;;5040970;28;20030;-65
2022/08/16 12:09:14;;;;;;;15.48;3.38;;;;;;;;;;5040266;28;20502;-64
2022/08/16 12:11:40;;;;;;;18.35;3.40;;;;;;;;;;5034816;28;20017;-63
2022/08/16 12:14:06;;;;;;;12.85;3.10;;;;;;;;;;5042091;28;20295;-63
2022/08/16 12:16:34;;;;;;;11.75;2.97;;;;;;;;;;5021771;28;20387;-66
2022/08/16 12:19:00;;;;;;;11.50;3.38;;;;;;;;;;5042946;28;20024;-63
2022/08/16 12:21:26;;;;;;;14.13;3.47;;;;;;;;;;5040316;28;20020;-61
2022/08/16 12:23:52;;;;;;;12.88;3.00;;;;;;;;;;5038743;28;20041;-62
2022/08/16 12:26:19;;;;;;;14.57;3.45;;;;;;;;;;5041161;28;20131;-63
2022/08/16 12:28:45;;;;;;;14.23;3.13;;;;;;;;;;5041376;28;20123;-64
2022/08/16 12:31:11;;;;;;;14.32;3.10;;;;;;;;;;5044171;28;20482;-65
2022/08/16 12:33:40;;;;;;;12.73;3.03;;;;;;;;;;5036953;28;20036;-65
2022/08/16 12:36:07;;;;;;;12.70;3.03;;;;;;;;;;5043310;28;20044;-65
2022/08/16 12:38:33;;;;;;;14.73;3.20;;;;;;;;;;5037465;28;20097;-61
2022/08/16 12:41:00;;;;;;;12.73;2.60;;;;;;;;;;5037465;28;20465;-63
2022/08/16 12:43:27;;;;;;;13.40;3.28;;;;;;;;;;5053017;28;20147;-62
2022/08/16 12:45:54;;;;;;;12.63;2.92;;;;;;;;;;5038518;28;20356;-62
2022/08/16 12:51:09;;;;;;;10.88;2.85;;;;;;;;;;5036126;28;20167;-63
2022/08/16 12:53:35;;;;;;;17.52;2.70;;;;;;;;;;5031665;28;20555;-61
2022/08/16 12:56:01;;;;;;;13.50;2.70;;;;;;;;;;5034690;28;20024;-62
2022/08/16 12:58:28;;;;;;;10.38;2.78;;;;;;;;;;5032990;28;20024;-62
2022/08/16 13:00:55;;;;;;;13.18;2.63;;;;;;;;;;5037820;28;20145;-62
2022/08/16 13:03:21;;;;;;;10.55;2.92;;;;;;;;;;5036662;28;20028;-62
2022/08/16 13:05:49;;;;;;;13.50;3.00;;;;;;;;;;5041771;28;20463;-62
2022/08/16 13:08:17;;;;;;;13.52;3.25;;;;;;;;;;5043056;28;20740;-62
2022/08/16 13:10:46;;;;;;;12.18;3.30;;;;;;;;;;5037299;28;20427;-62
2022/08/16 13:13:15;;;;;;;11.77;2.78;;;;;;;;;;5038868;28;20032;-63
2022/08/16 13:15:41;;;;;;;11.55;3.00;;;;;;;;;;5031293;28;20147;-63
2022/08/16 13:18:07;;;;;;;13.90;2.92;;;;;;;;;;5033747;28;20028;-62
2022/08/16 13:20:33;;;;;;;11.63;2.88;;;;;;;;;;5035397;28;20067;-66
2022/08/16 13:23:00;;;;;;;12.80;3.15;;;;;;;;;;5049263;28;20028;-62
2022/08/16 13:25:26;;;;;;;14.90;3.10;;;;;;;;;;5032924;28;20025;-63
2022/08/16 13:27:53;;;;;;;18.23;3.28;;;;;;;;;;5038171;28;20035;-63
2022/08/16 13:30:20;;;;;;;12.02;2.95;;;;;;;;;;5035367;28;20079;-63
2022/08/16 13:32:47;;;;;;;13.90;3.10;;;;;;;;;;5040643;28;20020;-62
2022/08/16 13:35:13;;;;;;;12.43;3.03;;;;;;;;;;5040237;28;20381;-61
2022/08/16 13:37:39;;;;;;;14.00;2.92;;;;;;;;;;5039713;28;20605;-62
2022/08/16 13:40:05;;;;;;;10.65;2.78;;;;;;;;;;5038946;28;20044;-62
2022/08/16 13:42:32;;;;;;;10.65;2.72;;;;;;;;;;5039402;28;20071;-62
2022/08/16 13:44:58;;;;;;;12.07;2.85;;;;;;;;;;5042344;28;20569;-63
2022/08/16 13:47:25;;;;;;;11.80;2.50;;;;;;;;;;5036287;28;20122;-62
2022/08/16 13:49:51;;;;;;;12.98;2.80;;;;;;;;;;5040276;28;20517;-62
2022/08/16 13:52:18;;;;;;;12.82;2.60;;;;;;;;;;5039749;28;20049;-62
2022/08/16 13:54:44;;;;;;;10.70;2.70;;;;;;;;;;5042566;28;20137;-64
2022/08/16 13:57:11;;;;;;;10.25;2.70;;;;;;;;;;5041222;28;20121;-61
2022/08/16 13:59:37;;;;;;;12.77;2.97;;;;;;;;;;5043453;28;20059;-66
2022/08/16 14:02:07;;;;;;;14.23;3.17;;;;;;;;;;5041103;28;20086;-61
2022/08/16 14:04:34;;;;;;;11.98;3.38;;;;;;;;;;5037150;28;20019;-61
2022/08/16 14:07:01;;;;;;;12.02;3.00;;;;;;;;;;5040169;28;20036;-62
2022/08/16 14:09:29;;;;;;;12.77;3.28;;;;;;;;;;5043858;28;20020;-63
2022/08/16 14:11:59;;;;;;;15.25;2.95;;;;;;;;;;5042811;28;20033;-62
2022/08/16 14:14:25;;;;;;;11.50;2.78;;;;;;;;;;5042310;28;20138;-64
2022/08/16 14:16:52;;;;;;;13.32;3.17;;;;;;;;;;5041608;28;20040;-64
2022/08/16 14:19:18;;;;;;;13.45;3.65;;;;;;;;;;5044859;28;20032;-62
2022/08/16 14:21:47;;;;;;;13.88;3.10;;;;;;;;;;5046213;28;20559;-62
2022/08/16 14:24:14;;;;;;;13.93;3.33;;;;;;;;;;5042682;28;20361;-62
2022/08/16 14:26:41;;;;;;;11.15;2.88;;;;;;;;;;5041620;28;20131;-61
2022/08/16 14:29:07;;;;;;;14.40;3.45;;;;;;;;;;5045547;28;20028;-62
2022/08/16 14:31:33;;;;;;;11.15;2.83;;;;;;;;;;5041525;28;20029;-62
2022/08/16 14:33:59;;;;;;;12.88;3.33;;;;;;;;;;5042700;28;20036;-62